sensor_id;sensor_type;location;lat;lon;timestamp;P1;durP1;ratioP1;P2;durP2;ratioP2
7057;SDS011;3570;43.080;25.628;2023-08-08T00:02:32;2.30;;;1.97;;
7057;SDS011;3570;43.080;25.628;2023-08-08T00:05:16;2.20;;;2.00;;
7057;SDS011;3570;43.080;25.628;2023-08-08T00:08:00;1.90;;;1.80;;
7057;SDS011;3570;43.080;25.628;2023-08-08T00:10:44;1.93;;;1.80;;
7057;SDS011;3570;43.080;25.628;2023-08-08T00:13:27;1.90;;;1.80;;
7057;SDS011;3570;43.080;25.628;2023-08-08T00:16:11;2.23;;;2.00;;
7057;SDS011;3570;43.080;25.628;2023-08-08T00:18:55;2.83;;;2.30;;
7057;SDS011;3570;43.080;25.628;2023-08-08T00:21:39;2.07;;;1.87;;
7057;SDS011;3570;43.080;25.628;2023-08-08T00:24:23;2.20;;;1.80;;
7057;SDS011;3570;43.080;25.628;2023-08-08T00:27:07;1.90;;;1.80;;
7057;SDS011;3570;43.080;25.628;2023-08-08T00:29:51;2.30;;;1.90;;
7057;SDS011;3570;43.080;25.628;2023-08-08T00:32:36;2.37;;;2.10;;
7057;SDS011;3570;43.080;25.628;2023-08-08T00:35:20;2.33;;;1.90;;
7057;SDS011;3570;43.080;25.628;2023-08-08T00:38:04;2.43;;;2.23;;
7057;SDS011;3570;43.080;25.628;2023-08-08T00:40:48;2.13;;;1.90;;
7057;SDS011;3570;43.080;25.628;2023-08-08T00:43:32;1.87;;;1.77;;
7057;SDS011;3570;43.080;25.628;2023-08-08T00:46:17;2.43;;;2.10;;
7057;SDS011;3570;43.080;25.628;2023-08-08T00:49:04;3.50;;;2.27;;
7057;SDS011;3570;43.080;25.628;2023-08-08T00:51:48;2.20;;;2.00;;
7057;SDS011;3570;43.080;25.628;2023-08-08T00:54:33;2.33;;;1.90;;
7057;SDS011;3570;43.080;25.628;2023-08-08T00:57:17;2.30;;;2.10;;
7057;SDS011;3570;43.080;25.628;2023-08-08T01:00:02;3.27;;;2.37;;
7057;SDS011;3570;43.080;25.628;2023-08-08T01:02:47;2.37;;;2.17;;
7057;SDS011;3570;43.080;25.628;2023-08-08T01:05:33;2.53;;;1.90;;
7057;SDS011;3570;43.080;25.628;2023-08-08T01:08:22;2.10;;;1.80;;
7057;SDS011;3570;43.080;25.628;2023-08-08T01:11:11;2.27;;;2.07;;
7057;SDS011;3570;43.080;25.628;2023-08-08T01:13:57;4.03;;;2.20;;
7057;SDS011;3570;43.080;25.628;2023-08-08T01:16:43;2.40;;;2.13;;
7057;SDS011;3570;43.080;25.628;2023-08-08T01:19:28;2.17;;;1.93;;
7057;SDS011;3570;43.080;25.628;2023-08-08T01:22:22;2.00;;;1.90;;
7057;SDS011;3570;43.080;25.628;2023-08-08T01:25:16;2.40;;;2.20;;
7057;SDS011;3570;43.080;25.628;2023-08-08T01:28:01;2.20;;;2.00;;
7057;SDS011;3570;43.080;25.628;2023-08-08T01:30:47;2.27;;;1.70;;
7057;SDS011;3570;43.080;25.628;2023-08-08T01:33:30;2.70;;;2.00;;
7057;SDS011;3570;43.080;25.628;2023-08-08T01:36:22;2.03;;;1.83;;
7057;SDS011;3570;43.080;25.628;2023-08-08T01:39:14;2.00;;;1.80;;
7057;SDS011;3570;43.080;25.628;2023-08-08T01:42:03;2.33;;;2.13;;
7057;SDS011;3570;43.080;25.628;2023-08-08T01:44:49;1.97;;;1.87;;
7057;SDS011;3570;43.080;25.628;2023-08-08T01:47:34;1.90;;;1.70;;
7057;SDS011;3570;43.080;25.628;2023-08-08T01:50:19;2.07;;;1.90;;
7057;SDS011;3570;43.080;25.628;2023-08-08T01:53:05;2.47;;;2.27;;
7057;SDS011;3570;43.080;25.628;2023-08-08T01:55:49;3.63;;;1.90;;
7057;SDS011;3570;43.080;25.628;2023-08-08T01:58:34;2.03;;;1.83;;
7057;SDS011;3570;43.080;25.628;2023-08-08T02:01:18;3.00;;;2.30;;
7057;SDS011;3570;43.080;25.628;2023-08-08T02:04:02;2.83;;;2.30;;
7057;SDS011;3570;43.080;25.628;2023-08-08T02:06:46;2.83;;;2.30;;
7057;SDS011;3570;43.080;25.628;2023-08-08T02:09:30;2.60;;;2.40;;
7057;SDS011;3570;43.080;25.628;2023-08-08T02:12:14;2.70;;;2.50;;
7057;SDS011;3570;43.080;25.628;2023-08-08T02:14:58;3.27;;;2.50;;
7057;SDS011;3570;43.080;25.628;2023-08-08T02:17:42;2.37;;;2.17;;
7057;SDS011;3570;43.080;25.628;2023-08-08T02:20:26;2.60;;;2.40;;
7057;SDS011;3570;43.080;25.628;2023-08-08T02:23:10;2.60;;;2.40;;
7057;SDS011;3570;43.080;25.628;2023-08-08T02:25:54;2.43;;;2.23;;
7057;SDS011;3570;43.080;25.628;2023-08-08T02:28:38;2.90;;;2.53;;
7057;SDS011;3570;43.080;25.628;2023-08-08T02:31:22;3.67;;;2.97;;
7057;SDS011;3570;43.080;25.628;2023-08-08T02:34:06;3.70;;;2.80;;
7057;SDS011;3570;43.080;25.628;2023-08-08T02:36:50;3.27;;;2.73;;
7057;SDS011;3570;43.080;25.628;2023-08-08T02:39:35;3.00;;;2.70;;
7057;SDS011;3570;43.080;25.628;2023-08-08T02:42:19;2.70;;;2.50;;
7057;SDS011;3570;43.080;25.628;2023-08-08T02:45:03;2.87;;;2.67;;
7057;SDS011;3570;43.080;25.628;2023-08-08T02:47:47;2.60;;;2.40;;
7057;SDS011;3570;43.080;25.628;2023-08-08T02:50:31;2.27;;;2.07;;
7057;SDS011;3570;43.080;25.628;2023-08-08T02:53:15;2.93;;;2.43;;
7057;SDS011;3570;43.080;25.628;2023-08-08T02:55:59;2.57;;;2.30;;
7057;SDS011;3570;43.080;25.628;2023-08-08T02:58:43;2.73;;;2.37;;
7057;SDS011;3570;43.080;25.628;2023-08-08T03:01:27;2.20;;;2.00;;
7057;SDS011;3570;43.080;25.628;2023-08-08T03:04:11;2.57;;;2.27;;
7057;SDS011;3570;43.080;25.628;2023-08-08T03:06:55;3.23;;;2.50;;
7057;SDS011;3570;43.080;25.628;2023-08-08T03:09:39;3.00;;;2.60;;
7057;SDS011;3570;43.080;25.628;2023-08-08T03:12:23;2.37;;;2.17;;
7057;SDS011;3570;43.080;25.628;2023-08-08T03:15:07;3.00;;;2.63;;
7057;SDS011;3570;43.080;25.628;2023-08-08T03:17:52;2.47;;;2.27;;
7057;SDS011;3570;43.080;25.628;2023-08-08T03:20:36;3.13;;;2.60;;
7057;SDS011;3570;43.080;25.628;2023-08-08T03:23:20;2.70;;;2.50;;
7057;SDS011;3570;43.080;25.628;2023-08-08T03:26:04;3.03;;;2.73;;
7057;SDS011;3570;43.080;25.628;2023-08-08T03:28:49;3.13;;;2.60;;
7057;SDS011;3570;43.080;25.628;2023-08-08T03:31:34;2.47;;;2.27;;
7057;SDS011;3570;43.080;25.628;2023-08-08T03:34:18;2.67;;;2.47;;
7057;SDS011;3570;43.080;25.628;2023-08-08T03:37:02;3.07;;;2.47;;
7057;SDS011;3570;43.080;25.628;2023-08-08T03:39:46;3.33;;;2.90;;
7057;SDS011;3570;43.080;25.628;2023-08-08T03:42:30;2.73;;;2.53;;
7057;SDS011;3570;43.080;25.628;2023-08-08T03:45:14;3.73;;;2.67;;
7057;SDS011;3570;43.080;25.628;2023-08-08T03:47:58;3.63;;;2.70;;
7057;SDS011;3570;43.080;25.628;2023-08-08T03:50:42;3.30;;;2.60;;
7057;SDS011;3570;43.080;25.628;2023-08-08T03:53:26;3.93;;;2.93;;
7057;SDS011;3570;43.080;25.628;2023-08-08T03:56:10;3.43;;;2.87;;
7057;SDS011;3570;43.080;25.628;2023-08-08T03:58:55;4.13;;;2.83;;
7057;SDS011;3570;43.080;25.628;2023-08-08T04:01:40;3.10;;;2.80;;
7057;SDS011;3570;43.080;25.628;2023-08-08T04:04:24;3.53;;;3.00;;
7057;SDS011;3570;43.080;25.628;2023-08-08T04:07:08;3.43;;;3.00;;
7057;SDS011;3570;43.080;25.628;2023-08-08T04:09:51;3.57;;;2.90;;
7057;SDS011;3570;43.080;25.628;2023-08-08T04:12:35;4.50;;;2.93;;
7057;SDS011;3570;43.080;25.628;2023-08-08T04:15:19;3.50;;;3.20;;
7057;SDS011;3570;43.080;25.628;2023-08-08T04:18:03;3.33;;;2.90;;
7057;SDS011;3570;43.080;25.628;2023-08-08T04:20:50;3.57;;;2.77;;
7057;SDS011;3570;43.080;25.628;2023-08-08T04:23:34;3.90;;;3.13;;
7057;SDS011;3570;43.080;25.628;2023-08-08T04:26:18;4.37;;;3.20;;
7057;SDS011;3570;43.080;25.628;2023-08-08T04:29:02;4.83;;;3.33;;
7057;SDS011;3570;43.080;25.628;2023-08-08T04:31:46;3.50;;;3.20;;
7057;SDS011;3570;43.080;25.628;2023-08-08T04:34:30;3.07;;;2.70;;
7057;SDS011;3570;43.080;25.628;2023-08-08T04:37:14;4.83;;;3.40;;
7057;SDS011;3570;43.080;25.628;2023-08-08T04:39:58;6.13;;;3.90;;
7057;SDS011;3570;43.080;25.628;2023-08-08T04:42:42;4.07;;;3.67;;
7057;SDS011;3570;43.080;25.628;2023-08-08T04:45:26;3.97;;;3.47;;
7057;SDS011;3570;43.080;25.628;2023-08-08T04:48:11;3.70;;;3.00;;
7057;SDS011;3570;43.080;25.628;2023-08-08T04:50:55;6.40;;;3.53;;
7057;SDS011;3570;43.080;25.628;2023-08-08T04:53:39;5.17;;;3.77;;
7057;SDS011;3570;43.080;25.628;2023-08-08T04:56:23;6.87;;;6.00;;
7057;SDS011;3570;43.080;25.628;2023-08-08T04:59:07;12.97;;;9.17;;
7057;SDS011;3570;43.080;25.628;2023-08-08T05:01:50;13.70;;;10.17;;
7057;SDS011;3570;43.080;25.628;2023-08-08T05:04:34;12.27;;;9.00;;
7057;SDS011;3570;43.080;25.628;2023-08-08T05:07:18;11.43;;;7.77;;
7057;SDS011;3570;43.080;25.628;2023-08-08T05:10:02;9.27;;;6.33;;
7057;SDS011;3570;43.080;25.628;2023-08-08T05:12:47;8.13;;;5.20;;
7057;SDS011;3570;43.080;25.628;2023-08-08T05:15:31;9.27;;;6.93;;
7057;SDS011;3570;43.080;25.628;2023-08-08T05:18:15;4.20;;;3.70;;
7057;SDS011;3570;43.080;25.628;2023-08-08T05:20:59;5.30;;;4.60;;
7057;SDS011;3570;43.080;25.628;2023-08-08T05:23:43;4.00;;;3.30;;
7057;SDS011;3570;43.080;25.628;2023-08-08T05:26:27;5.23;;;4.23;;
7057;SDS011;3570;43.080;25.628;2023-08-08T05:29:11;5.73;;;4.53;;
7057;SDS011;3570;43.080;25.628;2023-08-08T05:31:55;4.90;;;3.93;;
7057;SDS011;3570;43.080;25.628;2023-08-08T05:34:39;4.20;;;3.50;;
7057;SDS011;3570;43.080;25.628;2023-08-08T05:37:26;6.67;;;3.90;;
7057;SDS011;3570;43.080;25.628;2023-08-08T05:40:10;4.50;;;3.50;;
7057;SDS011;3570;43.080;25.628;2023-08-08T05:42:55;3.70;;;3.30;;
7057;SDS011;3570;43.080;25.628;2023-08-08T05:45:39;5.07;;;4.00;;
7057;SDS011;3570;43.080;25.628;2023-08-08T05:48:23;7.90;;;6.20;;
7057;SDS011;3570;43.080;25.628;2023-08-08T05:51:07;13.47;;;7.57;;
7057;SDS011;3570;43.080;25.628;2023-08-08T05:53:51;11.00;;;6.10;;
7057;SDS011;3570;43.080;25.628;2023-08-08T05:56:35;7.20;;;5.57;;
7057;SDS011;3570;43.080;25.628;2023-08-08T05:59:20;6.60;;;5.37;;
7057;SDS011;3570;43.080;25.628;2023-08-08T06:02:04;9.20;;;6.93;;
7057;SDS011;3570;43.080;25.628;2023-08-08T06:04:49;11.07;;;7.23;;
7057;SDS011;3570;43.080;25.628;2023-08-08T06:07:33;11.37;;;7.93;;
7057;SDS011;3570;43.080;25.628;2023-08-08T06:10:18;7.37;;;5.80;;
7057;SDS011;3570;43.080;25.628;2023-08-08T06:13:02;7.57;;;6.13;;
7057;SDS011;3570;43.080;25.628;2023-08-08T06:15:46;5.20;;;4.70;;
7057;SDS011;3570;43.080;25.628;2023-08-08T06:18:30;6.63;;;5.80;;
7057;SDS011;3570;43.080;25.628;2023-08-08T06:21:13;10.00;;;6.83;;
7057;SDS011;3570;43.080;25.628;2023-08-08T06:23:57;11.77;;;9.87;;
7057;SDS011;3570;43.080;25.628;2023-08-08T06:26:42;10.83;;;8.33;;
7057;SDS011;3570;43.080;25.628;2023-08-08T06:29:26;8.13;;;7.07;;
7057;SDS011;3570;43.080;25.628;2023-08-08T06:32:11;7.30;;;6.33;;
7057;SDS011;3570;43.080;25.628;2023-08-08T06:34:55;7.80;;;5.90;;
7057;SDS011;3570;43.080;25.628;2023-08-08T06:37:39;5.97;;;5.33;;
7057;SDS011;3570;43.080;25.628;2023-08-08T06:40:23;5.70;;;4.87;;
7057;SDS011;3570;43.080;25.628;2023-08-08T06:43:07;6.03;;;5.17;;
7057;SDS011;3570;43.080;25.628;2023-08-08T06:45:51;5.67;;;4.87;;
7057;SDS011;3570;43.080;25.628;2023-08-08T06:48:35;7.20;;;4.83;;
7057;SDS011;3570;43.080;25.628;2023-08-08T06:51:19;6.77;;;5.70;;
7057;SDS011;3570;43.080;25.628;2023-08-08T06:54:03;6.93;;;6.23;;
7057;SDS011;3570;43.080;25.628;2023-08-08T06:56:48;9.77;;;7.60;;
7057;SDS011;3570;43.080;25.628;2023-08-08T06:59:32;10.17;;;7.23;;
7057;SDS011;3570;43.080;25.628;2023-08-08T07:02:16;9.90;;;8.83;;
7057;SDS011;3570;43.080;25.628;2023-08-08T07:05:01;11.80;;;6.90;;
7057;SDS011;3570;43.080;25.628;2023-08-08T07:07:47;8.07;;;6.77;;
7057;SDS011;3570;43.080;25.628;2023-08-08T07:10:32;9.00;;;7.97;;
7057;SDS011;3570;43.080;25.628;2023-08-08T07:13:16;17.73;;;7.63;;
7057;SDS011;3570;43.080;25.628;2023-08-08T07:16:00;8.27;;;6.63;;
7057;SDS011;3570;43.080;25.628;2023-08-08T07:18:44;6.03;;;5.43;;
7057;SDS011;3570;43.080;25.628;2023-08-08T07:21:28;5.87;;;5.20;;
7057;SDS011;3570;43.080;25.628;2023-08-08T07:24:13;6.77;;;4.87;;
7057;SDS011;3570;43.080;25.628;2023-08-08T07:26:58;5.17;;;3.93;;
7057;SDS011;3570;43.080;25.628;2023-08-08T07:29:43;6.60;;;5.17;;
7057;SDS011;3570;43.080;25.628;2023-08-08T07:32:27;8.30;;;3.70;;
7057;SDS011;3570;43.080;25.628;2023-08-08T07:35:11;6.60;;;3.90;;
7057;SDS011;3570;43.080;25.628;2023-08-08T07:37:56;6.47;;;3.87;;
7057;SDS011;3570;43.080;25.628;2023-08-08T07:40:40;3.93;;;3.50;;
7057;SDS011;3570;43.080;25.628;2023-08-08T07:43:25;4.30;;;3.13;;
7057;SDS011;3570;43.080;25.628;2023-08-08T07:46:09;3.90;;;3.40;;
7057;SDS011;3570;43.080;25.628;2023-08-08T07:48:53;3.73;;;3.20;;
7057;SDS011;3570;43.080;25.628;2023-08-08T07:51:37;6.63;;;3.73;;
7057;SDS011;3570;43.080;25.628;2023-08-08T07:54:21;4.67;;;3.53;;
7057;SDS011;3570;43.080;25.628;2023-08-08T07:57:05;5.03;;;3.73;;
7057;SDS011;3570;43.080;25.628;2023-08-08T07:59:48;7.73;;;3.60;;
7057;SDS011;3570;43.080;25.628;2023-08-08T08:02:32;4.83;;;3.33;;
7057;SDS011;3570;43.080;25.628;2023-08-08T08:05:16;8.53;;;4.13;;
7057;SDS011;3570;43.080;25.628;2023-08-08T08:08:01;4.03;;;3.20;;
7057;SDS011;3570;43.080;25.628;2023-08-08T08:10:46;6.43;;;4.07;;
7057;SDS011;3570;43.080;25.628;2023-08-08T08:13:32;4.77;;;3.33;;
7057;SDS011;3570;43.080;25.628;2023-08-08T08:16:16;4.83;;;3.63;;
7057;SDS011;3570;43.080;25.628;2023-08-08T08:19:00;3.53;;;3.17;;
7057;SDS011;3570;43.080;25.628;2023-08-08T08:21:44;3.80;;;3.33;;
7057;SDS011;3570;43.080;25.628;2023-08-08T08:24:28;5.00;;;2.67;;
7057;SDS011;3570;43.080;25.628;2023-08-08T08:27:12;3.23;;;2.90;;
7057;SDS011;3570;43.080;25.628;2023-08-08T08:29:57;3.70;;;3.27;;
7057;SDS011;3570;43.080;25.628;2023-08-08T08:32:41;4.47;;;3.50;;
7057;SDS011;3570;43.080;25.628;2023-08-08T08:35:26;4.93;;;2.60;;
7057;SDS011;3570;43.080;25.628;2023-08-08T08:38:10;3.30;;;1.80;;
7057;SDS011;3570;43.080;25.628;2023-08-08T08:40:56;2.17;;;1.97;;
7057;SDS011;3570;43.080;25.628;2023-08-08T08:43:40;2.50;;;1.90;;
7057;SDS011;3570;43.080;25.628;2023-08-08T08:46:25;2.37;;;2.17;;
7057;SDS011;3570;43.080;25.628;2023-08-08T08:49:10;2.00;;;1.80;;
7057;SDS011;3570;43.080;25.628;2023-08-08T08:51:55;2.17;;;1.97;;
7057;SDS011;3570;43.080;25.628;2023-08-08T08:54:40;2.87;;;2.20;;
7057;SDS011;3570;43.080;25.628;2023-08-08T08:57:25;1.70;;;1.60;;
7057;SDS011;3570;43.080;25.628;2023-08-08T09:00:09;1.90;;;1.70;;
7057;SDS011;3570;43.080;25.628;2023-08-08T09:02:54;2.53;;;1.90;;
7057;SDS011;3570;43.080;25.628;2023-08-08T09:05:39;1.80;;;1.70;;
7057;SDS011;3570;43.080;25.628;2023-08-08T09:08:25;2.73;;;1.70;;
7057;SDS011;3570;43.080;25.628;2023-08-08T09:11:09;1.70;;;1.60;;
7057;SDS011;3570;43.080;25.628;2023-08-08T09:13:53;1.83;;;1.60;;
7057;SDS011;3570;43.080;25.628;2023-08-08T09:16:37;2.27;;;1.70;;
7057;SDS011;3570;43.080;25.628;2023-08-08T09:19:21;1.87;;;1.77;;
7057;SDS011;3570;43.080;25.628;2023-08-08T09:22:05;1.53;;;1.43;;
7057;SDS011;3570;43.080;25.628;2023-08-08T09:24:50;1.83;;;1.40;;
7057;SDS011;3570;43.080;25.628;2023-08-08T09:27:34;3.07;;;1.63;;
7057;SDS011;3570;43.080;25.628;2023-08-08T09:30:19;2.27;;;1.70;;
7057;SDS011;3570;43.080;25.628;2023-08-08T09:33:04;1.60;;;1.50;;
7057;SDS011;3570;43.080;25.628;2023-08-08T09:35:52;1.87;;;1.77;;
7057;SDS011;3570;43.080;25.628;2023-08-08T09:38:38;1.67;;;1.53;;
7057;SDS011;3570;43.080;25.628;2023-08-08T09:41:23;1.60;;;1.50;;
7057;SDS011;3570;43.080;25.628;2023-08-08T09:44:07;1.40;;;1.30;;
7057;SDS011;3570;43.080;25.628;2023-08-08T09:46:52;1.50;;;1.40;;
7057;SDS011;3570;43.080;25.628;2023-08-08T09:49:36;1.40;;;1.30;;
7057;SDS011;3570;43.080;25.628;2023-08-08T09:52:21;1.17;;;1.13;;
7057;SDS011;3570;43.080;25.628;2023-08-08T09:55:05;1.57;;;1.47;;
7057;SDS011;3570;43.080;25.628;2023-08-08T09:57:50;1.57;;;1.47;;
7057;SDS011;3570;43.080;25.628;2023-08-08T10:00:36;1.60;;;1.47;;
7057;SDS011;3570;43.080;25.628;2023-08-08T10:03:20;1.30;;;1.20;;
7057;SDS011;3570;43.080;25.628;2023-08-08T10:06:06;1.30;;;1.20;;
7057;SDS011;3570;43.080;25.628;2023-08-08T10:08:49;1.73;;;1.40;;
7057;SDS011;3570;43.080;25.628;2023-08-08T10:11:35;1.40;;;1.30;;
7057;SDS011;3570;43.080;25.628;2023-08-08T10:14:19;2.97;;;1.40;;
7057;SDS011;3570;43.080;25.628;2023-08-08T10:17:04;1.10;;;1.10;;
7057;SDS011;3570;43.080;25.628;2023-08-08T10:19:55;1.30;;;1.20;;
7057;SDS011;3570;43.080;25.628;2023-08-08T10:22:45;1.37;;;1.27;;
7057;SDS011;3570;43.080;25.628;2023-08-08T10:25:30;1.40;;;1.30;;
7057;SDS011;3570;43.080;25.628;2023-08-08T10:28:16;1.07;;;1.07;;
7057;SDS011;3570;43.080;25.628;2023-08-08T10:31:02;1.60;;;1.50;;
7057;SDS011;3570;43.080;25.628;2023-08-08T10:33:48;1.10;;;1.10;;
7057;SDS011;3570;43.080;25.628;2023-08-08T10:36:42;1.40;;;1.30;;
7057;SDS011;3570;43.080;25.628;2023-08-08T10:39:28;1.30;;;1.20;;
7057;SDS011;3570;43.080;25.628;2023-08-08T10:42:17;1.37;;;1.27;;
7057;SDS011;3570;43.080;25.628;2023-08-08T10:45:02;1.30;;;1.20;;
7057;SDS011;3570;43.080;25.628;2023-08-08T10:47:46;1.17;;;1.17;;
7057;SDS011;3570;43.080;25.628;2023-08-08T10:50:30;1.20;;;1.20;;
7057;SDS011;3570;43.080;25.628;2023-08-08T10:53:14;0.90;;;0.90;;
7057;SDS011;3570;43.080;25.628;2023-08-08T10:56:02;1.33;;;1.23;;
7057;SDS011;3570;43.080;25.628;2023-08-08T10:58:48;1.33;;;1.20;;
7057;SDS011;3570;43.080;25.628;2023-08-08T11:01:32;1.20;;;1.20;;
7057;SDS011;3570;43.080;25.628;2023-08-08T11:04:20;1.00;;;1.00;;
7057;SDS011;3570;43.080;25.628;2023-08-08T11:07:09;0.90;;;0.90;;
7057;SDS011;3570;43.080;25.628;2023-08-08T11:09:54;1.00;;;1.00;;
7057;SDS011;3570;43.080;25.628;2023-08-08T11:12:38;1.00;;;1.00;;
7057;SDS011;3570;43.080;25.628;2023-08-08T11:15:22;1.10;;;1.10;;
7057;SDS011;3570;43.080;25.628;2023-08-08T11:18:06;0.90;;;0.90;;
7057;SDS011;3570;43.080;25.628;2023-08-08T11:20:52;1.00;;;1.00;;
7057;SDS011;3570;43.080;25.628;2023-08-08T11:23:36;1.63;;;1.53;;
7057;SDS011;3570;43.080;25.628;2023-08-08T11:26:22;1.10;;;1.10;;
7057;SDS011;3570;43.080;25.628;2023-08-08T11:29:08;3.27;;;1.50;;
7057;SDS011;3570;43.080;25.628;2023-08-08T11:31:52;1.00;;;1.00;;
7057;SDS011;3570;43.080;25.628;2023-08-08T11:34:36;1.00;;;1.00;;
7057;SDS011;3570;43.080;25.628;2023-08-08T11:37:21;1.00;;;1.00;;
7057;SDS011;3570;43.080;25.628;2023-08-08T11:40:06;3.60;;;2.58;;
7057;SDS011;3570;43.080;25.628;2023-08-08T11:42:52;1.02;;;0.98;;
7057;SDS011;3570;43.080;25.628;2023-08-08T11:45:37;0.95;;;0.95;;
7057;SDS011;3570;43.080;25.628;2023-08-08T11:48:21;0.90;;;0.90;;
7057;SDS011;3570;43.080;25.628;2023-08-08T11:51:05;0.80;;;0.80;;
7057;SDS011;3570;43.080;25.628;2023-08-08T11:53:51;0.80;;;0.80;;
7057;SDS011;3570;43.080;25.628;2023-08-08T11:56:37;1.40;;;1.27;;
7057;SDS011;3570;43.080;25.628;2023-08-08T11:59:21;3.97;;;1.35;;
7057;SDS011;3570;43.080;25.628;2023-08-08T12:02:05;1.40;;;1.30;;
7057;SDS011;3570;43.080;25.628;2023-08-08T12:04:50;1.48;;;1.38;;
7057;SDS011;3570;43.080;25.628;2023-08-08T12:07:34;1.42;;;1.33;;
7057;SDS011;3570;43.080;25.628;2023-08-08T12:10:20;1.20;;;1.10;;
7057;SDS011;3570;43.080;25.628;2023-08-08T12:13:06;1.00;;;1.00;;
7057;SDS011;3570;43.080;25.628;2023-08-08T12:15:53;1.40;;;1.35;;
7057;SDS011;3570;43.080;25.628;2023-08-08T12:18:37;2.30;;;1.27;;
7057;SDS011;3570;43.080;25.628;2023-08-08T12:21:23;2.08;;;1.25;;
7057;SDS011;3570;43.080;25.628;2023-08-08T12:24:07;1.08;;;0.98;;
7057;SDS011;3570;43.080;25.628;2023-08-08T12:26:51;1.05;;;1.00;;
7057;SDS011;3570;43.080;25.628;2023-08-08T12:29:36;1.13;;;1.02;;
7057;SDS011;3570;43.080;25.628;2023-08-08T12:32:20;0.90;;;0.90;;
7057;SDS011;3570;43.080;25.628;2023-08-08T12:35:07;0.80;;;0.80;;
7057;SDS011;3570;43.080;25.628;2023-08-08T12:37:52;1.00;;;1.00;;
7057;SDS011;3570;43.080;25.628;2023-08-08T12:40:36;0.82;;;0.82;;
7057;SDS011;3570;43.080;25.628;2023-08-08T12:43:20;0.80;;;0.80;;
7057;SDS011;3570;43.080;25.628;2023-08-08T12:46:04;0.95;;;0.95;;
7057;SDS011;3570;43.080;25.628;2023-08-08T12:48:48;1.02;;;0.98;;
7057;SDS011;3570;43.080;25.628;2023-08-08T12:51:32;1.00;;;1.00;;
7057;SDS011;3570;43.080;25.628;2023-08-08T12:54:16;1.05;;;1.00;;
7057;SDS011;3570;43.080;25.628;2023-08-08T12:57:00;0.82;;;0.82;;
7057;SDS011;3570;43.080;25.628;2023-08-08T12:59:44;1.00;;;1.00;;
7057;SDS011;3570;43.080;25.628;2023-08-08T13:02:28;1.48;;;1.00;;
7057;SDS011;3570;43.080;25.628;2023-08-08T13:05:12;1.00;;;1.00;;
7057;SDS011;3570;43.080;25.628;2023-08-08T13:07:56;0.88;;;0.88;;
7057;SDS011;3570;43.080;25.628;2023-08-08T13:10:40;1.52;;;0.98;;
7057;SDS011;3570;43.080;25.628;2023-08-08T13:13:24;1.00;;;1.00;;
7057;SDS011;3570;43.080;25.628;2023-08-08T13:16:09;1.00;;;1.00;;
7057;SDS011;3570;43.080;25.628;2023-08-08T13:18:54;1.13;;;1.02;;
7057;SDS011;3570;43.080;25.628;2023-08-08T13:21:38;1.00;;;1.00;;
7057;SDS011;3570;43.080;25.628;2023-08-08T13:24:23;1.17;;;1.08;;
7057;SDS011;3570;43.080;25.628;2023-08-08T13:27:07;0.80;;;0.80;;
7057;SDS011;3570;43.080;25.628;2023-08-08T13:29:51;0.90;;;0.90;;
7057;SDS011;3570;43.080;25.628;2023-08-08T13:32:35;1.20;;;1.10;;
7057;SDS011;3570;43.080;25.628;2023-08-08T13:35:19;0.90;;;0.90;;
7057;SDS011;3570;43.080;25.628;2023-08-08T13:38:03;0.98;;;0.95;;
7057;SDS011;3570;43.080;25.628;2023-08-08T13:40:47;0.90;;;0.90;;
7057;SDS011;3570;43.080;25.628;2023-08-08T13:43:33;0.80;;;0.80;;
7057;SDS011;3570;43.080;25.628;2023-08-08T13:46:17;2.38;;;0.90;;
7057;SDS011;3570;43.080;25.628;2023-08-08T13:49:01;0.70;;;0.70;;
7057;SDS011;3570;43.080;25.628;2023-08-08T13:51:45;0.73;;;0.73;;
7057;SDS011;3570;43.080;25.628;2023-08-08T13:54:29;0.88;;;0.85;;
7057;SDS011;3570;43.080;25.628;2023-08-08T13:57:13;0.80;;;0.80;;
7057;SDS011;3570;43.080;25.628;2023-08-08T13:59:57;0.70;;;0.70;;
7057;SDS011;3570;43.080;25.628;2023-08-08T14:02:41;0.70;;;0.70;;
7057;SDS011;3570;43.080;25.628;2023-08-08T14:05:25;0.60;;;0.60;;
7057;SDS011;3570;43.080;25.628;2023-08-08T14:08:10;0.77;;;0.77;;
7057;SDS011;3570;43.080;25.628;2023-08-08T14:10:54;0.80;;;0.80;;
7057;SDS011;3570;43.080;25.628;2023-08-08T14:13:38;1.02;;;0.90;;
7057;SDS011;3570;43.080;25.628;2023-08-08T14:16:23;0.88;;;0.80;;
7057;SDS011;3570;43.080;25.628;2023-08-08T14:19:07;0.80;;;0.80;;
7057;SDS011;3570;43.080;25.628;2023-08-08T14:21:51;0.80;;;0.80;;
7057;SDS011;3570;43.080;25.628;2023-08-08T14:24:36;1.42;;;0.90;;
7057;SDS011;3570;43.080;25.628;2023-08-08T14:27:20;0.77;;;0.73;;
7057;SDS011;3570;43.080;25.628;2023-08-08T14:30:05;1.05;;;0.77;;
7057;SDS011;3570;43.080;25.628;2023-08-08T14:32:50;0.93;;;0.90;;
7057;SDS011;3570;43.080;25.628;2023-08-08T14:35:35;0.90;;;0.80;;
7057;SDS011;3570;43.080;25.628;2023-08-08T14:38:23;0.93;;;0.80;;
7057;SDS011;3570;43.080;25.628;2023-08-08T14:41:08;0.80;;;0.80;;
7057;SDS011;3570;43.080;25.628;2023-08-08T14:43:52;0.90;;;0.90;;
7057;SDS011;3570;43.080;25.628;2023-08-08T14:46:36;0.70;;;0.70;;
7057;SDS011;3570;43.080;25.628;2023-08-08T14:49:20;1.00;;;0.90;;
7057;SDS011;3570;43.080;25.628;2023-08-08T14:52:04;0.82;;;0.82;;
7057;SDS011;3570;43.080;25.628;2023-08-08T14:54:49;0.82;;;0.82;;
7057;SDS011;3570;43.080;25.628;2023-08-08T14:57:33;0.90;;;0.90;;
7057;SDS011;3570;43.080;25.628;2023-08-08T15:00:17;0.70;;;0.70;;
7057;SDS011;3570;43.080;25.628;2023-08-08T15:03:02;0.90;;;0.90;;
7057;SDS011;3570;43.080;25.628;2023-08-08T15:05:50;0.80;;;0.80;;
7057;SDS011;3570;43.080;25.628;2023-08-08T15:08:34;2.03;;;1.00;;
7057;SDS011;3570;43.080;25.628;2023-08-08T15:11:18;0.95;;;0.95;;
7057;SDS011;3570;43.080;25.628;2023-08-08T15:14:03;1.15;;;1.02;;
7057;SDS011;3570;43.080;25.628;2023-08-08T15:16:51;1.10;;;1.00;;
7057;SDS011;3570;43.080;25.628;2023-08-08T15:19:36;0.80;;;0.80;;
7057;SDS011;3570;43.080;25.628;2023-08-08T15:22:21;0.98;;;0.93;;
7057;SDS011;3570;43.080;25.628;2023-08-08T15:25:06;0.90;;;0.90;;
7057;SDS011;3570;43.080;25.628;2023-08-08T15:27:50;2.13;;;0.85;;
7057;SDS011;3570;43.080;25.628;2023-08-08T15:30:34;0.80;;;0.80;;
7057;SDS011;3570;43.080;25.628;2023-08-08T15:33:18;1.38;;;1.05;;
7057;SDS011;3570;43.080;25.628;2023-08-08T15:36:02;1.15;;;1.08;;
7057;SDS011;3570;43.080;25.628;2023-08-08T15:38:47;0.80;;;0.80;;
7057;SDS011;3570;43.080;25.628;2023-08-08T15:41:31;1.38;;;1.23;;
7057;SDS011;3570;43.080;25.628;2023-08-08T15:44:15;0.95;;;0.95;;
7057;SDS011;3570;43.080;25.628;2023-08-08T15:47:00;0.95;;;0.93;;
7057;SDS011;3570;43.080;25.628;2023-08-08T15:49:44;0.93;;;0.80;;
7057;SDS011;3570;43.080;25.628;2023-08-08T15:52:29;1.25;;;1.05;;
7057;SDS011;3570;43.080;25.628;2023-08-08T15:55:13;0.90;;;0.90;;
7057;SDS011;3570;43.080;25.628;2023-08-08T15:57:57;0.75;;;0.75;;
7057;SDS011;3570;43.080;25.628;2023-08-08T16:00:41;1.15;;;0.93;;
7057;SDS011;3570;43.080;25.628;2023-08-08T16:03:25;1.00;;;1.00;;
7057;SDS011;3570;43.080;25.628;2023-08-08T16:06:09;1.00;;;1.00;;
7057;SDS011;3570;43.080;25.628;2023-08-08T16:08:53;0.90;;;0.90;;
7057;SDS011;3570;43.080;25.628;2023-08-08T16:11:37;0.80;;;0.80;;
7057;SDS011;3570;43.080;25.628;2023-08-08T16:14:21;1.65;;;1.00;;
7057;SDS011;3570;43.080;25.628;2023-08-08T16:17:06;1.13;;;1.10;;
7057;SDS011;3570;43.080;25.628;2023-08-08T16:19:50;1.40;;;1.30;;
7057;SDS011;3570;43.080;25.628;2023-08-08T16:22:35;1.00;;;1.00;;
7057;SDS011;3570;43.080;25.628;2023-08-08T16:25:19;1.30;;;1.17;;
7057;SDS011;3570;43.080;25.628;2023-08-08T16:28:03;1.45;;;1.20;;
7057;SDS011;3570;43.080;25.628;2023-08-08T16:30:48;1.10;;;1.00;;
7057;SDS011;3570;43.080;25.628;2023-08-08T16:33:32;1.02;;;1.02;;
7057;SDS011;3570;43.080;25.628;2023-08-08T16:36:16;1.02;;;1.00;;
7057;SDS011;3570;43.080;25.628;2023-08-08T16:39:00;1.67;;;1.15;;
7057;SDS011;3570;43.080;25.628;2023-08-08T16:41:44;0.80;;;0.80;;
7057;SDS011;3570;43.080;25.628;2023-08-08T16:44:29;1.23;;;1.13;;
7057;SDS011;3570;43.080;25.628;2023-08-08T16:47:13;1.63;;;1.03;;